Terminal Aerodrome Forecast
Issued by NWS Louisville, KY

Home | Current Version | Previous Version | Text Only | Print | Product List | Glossary On
Versions: 1 2 3 4 5 6 7 8 9 10 11 12 13 14 15
571
FTUS43 KLMK 191350 AAA
TAFLEX
TAF AMD
KLEX 191350Z 1914/2012 25005KT 6SM BR OVC009
      TEMPO 1917/1918 6SM BR OVC011
     FM191800 26004KT P6SM OVC012
     FM200000 VRB03KT P6SM SCT015 SCT200
      TEMPO 2000/2003 BKN015
     FM200600 VRB03KT 4SM BR BKN200=

USA.gov is the U.S. government's official web portal to all federal, state and local government web resources and services.